Time;durP1;ratioP1;P1;durP2;ratioP2;P2;SDS_P1;SDS_P2;PMS_P1;PMS_P2;Temp;Humidity;BMP_temperature;BMP_pressure;BME280_temperature;BME280_humidity;BME280_pressure;Samples;Min_cycle;Max_cycle;Signal;HPM_P1;HPM_P2
2023/09/14 00:02:11;;;;;;;7.13;3.50;;;;;;;14.45;88.99;102213.03;5041589;28;20032;-65
2023/09/14 00:04:37;;;;;;;10.35;3.80;;;;;;;14.43;89.15;102212.38;5044233;28;20487;-66
2023/09/14 00:07:02;;;;;;;10.13;3.92;;;;;;;14.42;88.91;102207.16;5039134;28;21167;-64
2023/09/14 00:09:27;;;;;;;10.35;4.15;;;;;;;14.43;89.17;102212.38;5040311;28;20029;-65
2023/09/14 00:11:53;;;;;;;9.25;3.83;;;;;;;14.45;88.90;102217.53;5039309;28;20029;-65
2023/09/14 00:14:18;;;;;;;7.90;3.70;;;;;;;14.43;89.33;102214.19;5037735;28;20035;-65
2023/09/14 00:16:43;;;;;;;9.40;3.85;;;;;;;14.35;89.05;102209.66;5039362;28;20044;-65
2023/09/14 00:19:09;;;;;;;8.82;3.85;;;;;;;14.33;88.83;102213.47;5039430;28;20040;-65
2023/09/14 00:21:34;;;;;;;7.95;3.70;;;;;;;14.32;88.93;102215.31;5037196;28;20021;-65
2023/09/14 00:23:59;;;;;;;6.07;3.47;;;;;;;14.20;88.85;102214.78;5037654;28;20086;-65
2023/09/14 00:26:25;;;;;;;7.65;3.60;;;;;;;14.07;88.52;102210.88;5038616;28;20025;-66
2023/09/14 00:28:50;;;;;;;11.30;4.00;;;;;;;13.97;88.87;102215.50;5041091;28;20110;-65
2023/09/14 00:31:16;;;;;;;9.18;3.92;;;;;;;13.90;88.57;102205.47;5042915;28;20056;-65
2023/09/14 00:33:41;;;;;;;9.10;4.57;;;;;;;13.89;89.28;102210.97;5041528;28;20025;-65
2023/09/14 00:36:06;;;;;;;9.40;3.80;;;;;;;13.89;89.36;102206.44;5043420;28;20401;-65
2023/09/14 00:38:31;;;;;;;9.27;4.15;;;;;;;13.85;89.54;102214.91;5045241;28;20024;-65
2023/09/14 00:40:57;;;;;;;6.40;3.83;;;;;;;13.82;89.29;102210.72;5033805;28;20701;-65
2023/09/14 00:43:22;;;;;;;8.25;3.80;;;;;;;13.74;89.30;102204.50;5037591;28;20022;-65
2023/09/14 00:45:47;;;;;;;9.90;4.13;;;;;;;13.68;89.50;102208.66;5032416;28;20513;-65
2023/09/14 00:48:13;;;;;;;8.85;3.72;;;;;;;13.66;89.57;102212.47;5031237;28;20031;-65
2023/09/14 00:50:40;;;;;;;8.52;3.80;;;;;;;13.63;89.90;102210.97;5041734;28;20025;-65
2023/09/14 00:53:16;;;;;;;7.32;4.10;;;;;;;13.68;90.39;102215.81;5032661;28;20221;-65
2023/09/14 00:55:43;;;;;;;8.30;3.70;;;;;;;13.69;89.99;102214.84;5036193;28;20022;-65
2023/09/14 00:58:14;;;;;;;9.68;4.65;;;;;;;13.66;89.99;102212.47;5038566;28;20035;-65
2023/09/14 01:00:40;;;;;;;5.70;3.25;;;;;;;13.66;90.20;102207.97;5043291;28;20028;-65
2023/09/14 01:03:05;;;;;;;6.43;3.15;;;;;;;13.68;89.92;102205.16;5038641;28;20032;-65
2023/09/14 01:05:31;;;;;;;5.47;3.50;;;;;;;13.68;89.95;102214.00;5041083;28;20490;-65
2023/09/14 01:07:57;;;;;;;8.48;3.70;;;;;;;13.55;89.87;102216.22;5037262;28;20025;-65
2023/09/14 01:10:23;;;;;;;9.65;4.10;;;;;;;13.51;89.61;102225.53;5040177;28;20016;-65
2023/09/14 01:12:49;;;;;;;7.10;3.67;;;;;;;13.44;89.83;102228.00;5036106;28;20021;-65
2023/09/14 01:15:22;;;;;;;7.57;3.60;;;;;;;13.38;90.17;102225.13;5042890;28;20448;-65
2023/09/14 01:18:07;;;;;;;5.75;3.42;;;;;;;13.40;90.39;102223.97;5039619;28;20473;-65
2023/09/14 01:20:46;;;;;;;8.50;3.70;;;;;;;13.47;90.54;102226.84;5041921;28;20095;-65
2023/09/14 01:23:33;;;;;;;6.32;3.53;;;;;;;13.52;90.54;102224.53;5049075;28;20021;-65
2023/09/14 01:26:00;;;;;;;7.03;3.90;;;;;;;13.39;90.33;102224.13;5043921;28;20021;-65
2023/09/14 01:28:25;;;;;;;7.80;4.20;;;;;;;13.35;90.79;102220.94;5040090;28;20091;-65
2023/09/14 01:30:51;;;;;;;9.05;4.38;;;;;;;13.41;90.39;102219.47;5044610;28;20119;-65
2023/09/14 01:33:17;;;;;;;8.10;3.83;;;;;;;13.41;90.49;102217.66;5042993;28;20378;-65
2023/09/14 01:36:06;;;;;;;10.48;3.95;;;;;;;13.42;90.98;102210.47;5041936;28;20625;-66
2023/09/14 01:38:33;;;;;;;8.55;3.90;;;;;;;13.38;90.69;102212.63;5048943;28;20029;-65
2023/09/14 01:40:59;;;;;;;6.43;3.58;;;;;;;13.42;90.70;102211.31;5035803;28;20426;-65
2023/09/14 01:43:25;;;;;;;5.38;3.20;;;;;;;13.41;90.58;102214.13;5043952;28;20025;-65
2023/09/14 01:45:52;;;;;;;6.07;3.40;;;;;;;13.36;90.50;102211.09;5040400;28;20421;-65
2023/09/14 01:48:19;;;;;;;8.82;4.00;;;;;;;13.24;90.53;102210.50;5040824;28;20025;-64
2023/09/14 01:50:45;;;;;;;6.65;3.47;;;;;;;13.23;91.00;102222.16;5037956;28;20021;-65
2023/09/14 01:53:11;;;;;;;6.45;3.38;;;;;;;13.23;90.63;102216.81;5038601;28;20466;-65
2023/09/14 01:55:36;;;;;;;6.50;3.83;;;;;;;13.21;91.31;102222.31;5040017;28;20088;-65
2023/09/14 01:58:02;;;;;;;7.20;3.75;;;;;;;13.20;91.06;102211.78;5035203;28;20021;-65
2023/09/14 02:00:27;;;;;;;5.28;3.30;;;;;;;13.24;91.04;102219.31;5048929;28;20685;-65
2023/09/14 02:02:53;;;;;;;3.38;2.33;;;;;;;13.24;90.90;102218.50;5038556;28;20037;-66
2023/09/14 02:05:18;;;;;;;2.55;2.28;;;;;;;13.21;90.97;102216.97;5038064;28;20450;-65
2023/09/14 02:07:44;;;;;;;4.28;2.33;;;;;;;13.13;91.01;102216.88;5038100;28;20109;-65
2023/09/14 02:10:09;;;;;;;4.10;2.50;;;;;;;13.05;90.85;102213.31;5041024;28;20033;-65
2023/09/14 02:12:34;;;;;;;5.28;2.80;;;;;;;12.93;90.97;102204.69;5042857;28;20021;-65
2023/09/14 02:14:59;;;;;;;6.18;3.00;;;;;;;12.85;90.77;102210.78;5033526;28;20029;-65
2023/09/14 02:17:25;;;;;;;5.22;2.85;;;;;;;12.79;90.99;102210.56;5032235;28;20025;-64
2023/09/14 02:19:53;;;;;;;5.63;2.03;;;;;;;12.73;90.94;102208.50;5048388;28;20027;-65
2023/09/14 02:22:18;;;;;;;3.28;2.53;;;;;;;12.65;90.89;102206.56;5047764;28;20029;-65
2023/09/14 02:24:43;;;;;;;4.38;2.42;;;;;;;12.59;91.14;102202.69;5047216;28;20071;-65
2023/09/14 02:27:08;;;;;;;3.90;2.03;;;;;;;12.55;91.33;102205.81;5044626;28;20098;-65
2023/09/14 02:29:34;;;;;;;6.43;2.75;;;;;;;12.53;91.60;102205.97;5040909;28;20371;-66
2023/09/14 02:31:59;;;;;;;4.60;2.22;;;;;;;12.49;92.19;102203.75;5048093;28;20036;-65
2023/09/14 02:34:24;;;;;;;3.42;2.20;;;;;;;12.44;92.15;102198.03;5037954;28;20029;-65
2023/09/14 02:36:50;;;;;;;2.08;1.40;;;;;;;12.42;92.32;102195.50;5043484;28;20054;-64
2023/09/14 02:39:15;;;;;;;1.90;1.30;;;;;;;12.35;92.55;102200.59;5043624;28;20422;-65
2023/09/14 02:41:40;;;;;;;2.70;1.20;;;;;;;12.29;92.30;102198.53;5030888;28;20464;-66
2023/09/14 02:44:05;;;;;;;2.00;1.10;;;;;;;12.23;91.93;102203.59;5042244;28;20108;-65
2023/09/14 02:46:31;;;;;;;2.20;1.50;;;;;;;12.19;92.01;102199.56;5039055;28;20497;-65
2023/09/14 02:48:56;;;;;;;1.45;1.30;;;;;;;12.17;92.49;102198.88;5046679;28;20074;-65
2023/09/14 02:51:21;;;;;;;0.98;0.98;;;;;;;12.12;92.79;102198.47;5038897;28;20040;-65
2023/09/14 02:53:46;;;;;;;1.20;0.98;;;;;;;12.07;92.54;102202.41;5037815;28;20624;-65
2023/09/14 02:56:12;;;;;;;1.35;0.68;;;;;;;12.03;92.98;102195.69;5045358;28;20074;-66
2023/09/14 02:58:37;;;;;;;0.70;0.55;;;;;;;12.03;92.97;102193.03;5033646;28;20547;-65
2023/09/14 03:01:09;;;;;;;0.90;0.90;;;;;;;12.01;93.25;102192.34;5034537;28;20694;-65
2023/09/14 03:03:39;;;;;;;2.45;1.52;;;;;;;11.95;93.45;102187.63;5042559;28;20549;-65
2023/09/14 03:06:05;;;;;;;;;;;;;;;12.18;93.40;102187.25;5031293;28;20104;-65
2023/09/14 03:08:30;;;;;;;3.67;1.80;;;;;;;12.14;92.91;102189.34;5033292;28;20003;-65
2023/09/14 03:10:56;;;;;;;4.57;2.30;;;;;;;12.15;93.46;102184.88;5037665;28;20033;-65
2023/09/14 03:13:22;;;;;;;5.47;2.63;;;;;;;12.12;93.45;102191.31;5044465;28;20028;-65
2023/09/14 03:15:53;;;;;;;1.70;1.10;;;;;;;12.08;93.13;102193.44;5040191;28;20021;-65
2023/09/14 03:18:18;;;;;;;2.15;0.75;;;;;;;12.02;92.91;102198.50;5041273;28;20017;-65
2023/09/14 03:20:45;;;;;;;1.67;0.68;;;;;;;11.94;92.47;102201.91;5045955;28;20086;-65
2023/09/14 03:23:10;;;;;;;3.17;0.93;;;;;;;11.89;92.51;102200.69;5041910;28;20059;-65
2023/09/14 03:25:36;;;;;;;1.10;1.00;;;;;;;11.96;92.63;102193.78;5035471;28;20053;-65
2023/09/14 03:28:01;;;;;;;1.70;1.20;;;;;;;11.94;92.38;102201.06;5041724;28;20036;-65
2023/09/14 03:30:26;;;;;;;2.60;1.75;;;;;;;12.01;92.77;102196.84;5047558;28;20025;-65
2023/09/14 03:32:51;;;;;;;2.42;1.90;;;;;;;11.97;92.76;102200.78;5038418;28;20025;-65
2023/09/14 03:35:17;;;;;;;2.88;2.00;;;;;;;11.87;93.07;102202.66;5044537;28;20029;-65
2023/09/14 03:37:42;;;;;;;3.65;2.08;;;;;;;11.86;92.65;102207.13;5034523;28;20029;-65
2023/09/14 03:40:08;;;;;;;3.80;2.00;;;;;;;11.84;92.85;102208.22;5038763;28;20371;-65
2023/09/14 03:42:33;;;;;;;3.85;1.98;;;;;;;11.74;92.64;102208.25;5043564;28;20140;-64
2023/09/14 03:44:59;;;;;;;1.80;1.40;;;;;;;11.71;92.38;102200.56;5039503;28;20506;-65
2023/09/14 03:47:24;;;;;;;0.80;0.60;;;;;;;11.63;92.30;102197.78;5040095;28;20036;-65
2023/09/14 03:49:49;;;;;;;3.13;1.10;;;;;;;11.69;92.33;102203.34;5041749;28;20025;-64
2023/09/14 03:52:15;;;;;;;2.10;1.45;;;;;;;11.69;92.82;102197.19;5039113;28;21565;-65
2023/09/14 03:54:40;;;;;;;4.03;1.90;;;;;;;11.82;92.58;102205.72;5037812;28;20589;-64
2023/09/14 03:57:14;;;;;;;3.20;1.98;;;;;;;11.71;93.08;102204.06;5043470;28;20025;-65
2023/09/14 03:59:40;;;;;;;5.05;1.63;;;;;;;11.65;92.81;102194.00;5039438;28;20037;-65
2023/09/14 04:02:05;;;;;;;2.40;1.33;;;;;;;11.65;92.61;102195.81;5043843;28;20032;-65
2023/09/14 04:04:31;;;;;;;2.08;1.30;;;;;;;11.66;93.06;102197.50;5042545;28;20029;-65
2023/09/14 04:06:56;;;;;;;6.00;2.20;;;;;;;11.74;92.77;102197.59;5043915;28;20025;-65
2023/09/14 04:09:21;;;;;;;3.35;1.60;;;;;;;11.76;93.16;102201.78;5047345;28;20072;-65
2023/09/14 04:11:47;;;;;;;1.77;1.30;;;;;;;11.82;93.48;102197.75;5041205;28;20720;-65
2023/09/14 04:14:12;;;;;;;2.83;1.50;;;;;;;11.81;93.66;102198.72;5044466;28;20029;-65
2023/09/14 04:16:37;;;;;;;1.75;1.58;;;;;;;11.80;94.14;102205.03;5041841;28;20579;-65
2023/09/14 04:19:03;;;;;;;1.83;1.10;;;;;;;11.67;93.72;102201.81;5041683;28;20025;-65
2023/09/14 04:21:28;;;;;;;2.63;1.40;;;;;;;11.61;93.24;102195.28;5038988;28;20099;-65
2023/09/14 04:23:53;;;;;;;1.27;1.00;;;;;;;11.54;93.01;102198.63;5044981;28;20025;-65
2023/09/14 04:26:19;;;;;;;1.85;0.60;;;;;;;11.52;93.13;102195.28;5040210;28;20052;-65
2023/09/14 04:28:44;;;;;;;1.08;0.90;;;;;;;11.41;92.75;102193.63;5043172;28;20043;-65
2023/09/14 04:31:11;;;;;;;1.95;0.95;;;;;;;11.32;92.46;102200.66;5039177;28;20055;-64
2023/09/14 04:33:37;;;;;;;1.23;0.82;;;;;;;11.23;93.09;102201.47;5040694;28;20448;-65
2023/09/14 04:36:05;;;;;;;2.88;1.13;;;;;;;11.20;92.71;102203.56;5040163;28;20105;-64
2023/09/14 04:38:30;;;;;;;1.10;1.00;;;;;;;11.15;93.26;102196.88;5040571;28;20071;-65
2023/09/14 04:40:55;;;;;;;0.80;0.80;;;;;;;11.08;93.31;102193.09;5042166;28;20068;-65
2023/09/14 04:43:24;;;;;;;1.20;0.90;;;;;;;11.10;93.58;102200.94;5043544;28;20060;-65
2023/09/14 04:45:49;;;;;;;0.75;0.73;;;;;;;11.08;93.73;102202.91;5042700;28;20094;-66
2023/09/14 04:48:15;;;;;;;1.75;0.70;;;;;;;11.09;93.50;102200.09;5043394;28;20517;-65
2023/09/14 04:50:42;;;;;;;2.25;1.55;;;;;;;11.16;94.13;102205.69;5042519;28;20517;-65
2023/09/14 04:53:08;;;;;;;3.97;1.60;;;;;;;11.26;94.24;102205.66;5039653;28;20025;-65
2023/09/14 04:55:33;;;;;;;3.13;1.83;;;;;;;11.32;94.52;102205.97;5042631;28;20036;-65
2023/09/14 04:57:58;;;;;;;3.85;2.10;;;;;;;11.32;94.33;102198.00;5039188;28;20653;-64
2023/09/14 05:00:23;;;;;;;2.47;1.50;;;;;;;11.26;94.35;102210.97;5041751;28;20060;-65
2023/09/14 05:02:49;;;;;;;3.40;1.70;;;;;;;11.22;94.21;102202.44;5044697;28;20108;-65
2023/09/14 05:05:14;;;;;;;4.80;1.80;;;;;;;11.17;94.11;102208.19;5038519;28;20544;-65
2023/09/14 05:07:40;;;;;;;2.40;1.80;;;;;;;11.21;94.08;102200.78;5032553;28;20025;-65
2023/09/14 05:10:08;;;;;;;2.60;1.70;;;;;;;11.23;94.32;102204.13;5040125;28;20033;-65
2023/09/14 05:12:33;;;;;;;1.80;1.70;;;;;;;11.18;94.12;102193.91;5042780;28;20158;-65
2023/09/14 05:14:58;;;;;;;2.30;1.60;;;;;;;11.25;94.45;102204.81;5044696;28;20076;-65
2023/09/14 05:17:23;;;;;;;6.97;2.00;;;;;;;11.27;94.22;102207.34;5037433;28;20025;-65
2023/09/14 05:19:49;;;;;;;3.65;1.60;;;;;;;11.30;94.35;102207.09;5037917;28;20394;-65
2023/09/14 05:22:14;;;;;;;2.08;1.02;;;;;;;11.24;94.45;102200.50;5043841;28;20032;-65
2023/09/14 05:24:39;;;;;;;2.60;1.90;;;;;;;11.36;94.52;102214.50;5043542;28;20478;-65
2023/09/14 05:27:05;;;;;;;3.67;1.90;;;;;;;11.42;94.51;102213.91;5041730;28;20504;-65
2023/09/14 05:29:30;;;;;;;4.22;2.30;;;;;;;11.42;94.35;102213.91;5039717;28;20025;-65
2023/09/14 05:31:56;;;;;;;4.35;1.85;;;;;;;11.38;94.31;102226.66;5045731;28;20490;-65
2023/09/14 05:34:21;;;;;;;4.68;2.20;;;;;;;11.45;94.48;102227.78;5043447;28;20464;-65
2023/09/14 05:36:47;;;;;;;5.90;2.85;;;;;;;11.43;94.45;102226.25;5039478;28;20025;-65
2023/09/14 05:39:13;;;;;;;4.72;2.60;;;;;;;11.43;94.65;102229.72;5045094;28;20029;-65
2023/09/14 05:41:40;;;;;;;6.07;3.25;;;;;;;11.46;94.85;102229.44;5040023;28;20479;-65
2023/09/14 05:44:08;;;;;;;5.15;2.50;;;;;;;11.47;94.74;102222.31;5043630;28;20075;-64
2023/09/14 05:46:33;;;;;;;4.93;2.80;;;;;;;11.43;94.77;102229.72;5040665;28;20510;-64
2023/09/14 05:48:58;;;;;;;4.50;2.60;;;;;;;11.54;94.93;102230.56;5044186;28;20032;-65
2023/09/14 05:51:23;;;;;;;5.10;2.30;;;;;;;11.56;95.28;102233.91;5043174;28;20029;-65
2023/09/14 05:53:49;;;;;;;3.70;2.60;;;;;;;11.58;95.12;102234.63;5040928;28;20021;-65
2023/09/14 05:56:14;;;;;;;4.50;2.25;;;;;;;11.61;94.66;102231.69;5035530;28;20100;-65
2023/09/14 05:58:39;;;;;;;4.40;2.20;;;;;;;11.68;94.71;102238.94;5034718;28;20479;-65
2023/09/14 06:01:05;;;;;;;4.55;2.22;;;;;;;11.68;94.32;102238.09;5043174;28;20037;-65
2023/09/14 06:03:30;;;;;;;4.28;2.17;;;;;;;11.68;94.15;102232.78;5040101;28;20772;-65
2023/09/14 06:05:55;;;;;;;5.95;2.10;;;;;;;11.68;94.24;102238.94;5041733;28;20033;-65
2023/09/14 06:08:21;;;;;;;4.50;1.90;;;;;;;11.74;94.05;102242.84;5032990;28;20038;-65
2023/09/14 06:10:46;;;;;;;3.42;1.98;;;;;;;11.76;94.13;102239.06;5039341;28;20029;-65
2023/09/14 06:13:11;;;;;;;3.13;1.70;;;;;;;11.79;93.81;102236.13;5041487;28;20052;-65
2023/09/14 06:15:36;;;;;;;8.15;4.00;;;;;;;12.04;94.66;102247.13;5040413;28;20032;-65
2023/09/14 06:18:02;;;;;;;14.80;5.43;;;;;;;12.20;95.35;102241.19;5038638;28;20052;-64
2023/09/14 06:20:27;;;;;;;12.35;5.90;;;;;;;12.31;96.35;102239.16;5037678;28;20029;-64
2023/09/14 06:22:53;;;;;;;13.20;6.28;;;;;;;12.49;96.94;102236.56;5042175;28;20037;-64
2023/09/14 06:25:20;;;;;;;10.75;5.93;;;;;;;12.61;97.11;102238.03;5042507;28;20029;-64
2023/09/14 06:27:45;;;;;;;19.38;6.30;;;;;;;12.69;97.06;102240.78;5042038;28;20036;-64
2023/09/14 06:30:10;;;;;;;15.15;5.80;;;;;;;12.76;96.69;102238.38;5041775;28;20029;-65
2023/09/14 06:32:36;;;;;;;14.80;5.68;;;;;;;12.85;97.03;102241.94;5043572;28;20028;-64
2023/09/14 06:35:01;;;;;;;13.57;5.82;;;;;;;12.97;97.05;102241.56;5039624;28;20029;-64
2023/09/14 06:37:26;;;;;;;16.30;6.03;;;;;;;13.11;96.90;102240.19;5040197;28;20100;-64
2023/09/14 06:39:52;;;;;;;20.52;6.35;;;;;;;13.31;97.01;102238.25;5039665;28;20090;-65
2023/09/14 06:42:17;;;;;;;13.43;5.85;;;;;;;13.41;96.91;102240.81;5042392;28;20037;-65
2023/09/14 06:44:43;;;;;;;17.35;6.43;;;;;;;13.49;97.00;102244.38;5041096;28;20516;-65
2023/09/14 06:47:08;;;;;;;10.05;6.00;;;;;;;13.61;97.25;102236.97;5044073;28;20033;-65
2023/09/14 06:49:33;;;;;;;14.68;6.20;;;;;;;13.70;96.75;102237.88;5045141;28;20033;-65
2023/09/14 06:51:59;;;;;;;10.65;5.93;;;;;;;13.75;96.46;102232.88;5036317;28;20041;-65
2023/09/14 06:54:24;;;;;;;12.88;6.53;;;;;;;13.90;96.63;102240.16;5041901;28;20032;-65
2023/09/14 06:56:49;;;;;;;11.38;5.70;;;;;;;13.94;96.25;102244.19;5042469;28;20036;-65
2023/09/14 06:59:15;;;;;;;12.55;6.03;;;;;;;13.97;95.60;102239.53;5035042;28;20024;-65
2023/09/14 07:01:40;;;;;;;11.68;6.60;;;;;;;13.98;95.40;102249.22;5028649;28;20086;-65
2023/09/14 07:04:05;;;;;;;15.95;6.50;;;;;;;14.05;95.21;102252.94;5040675;28;20033;-65
2023/09/14 07:06:30;;;;;;;12.73;6.93;;;;;;;14.12;95.56;102251.28;5034004;28;20040;-64
2023/09/14 07:08:56;;;;;;;13.50;6.65;;;;;;;14.23;95.43;102248.34;5034912;28;20123;-66
2023/09/14 07:11:21;;;;;;;18.73;7.00;;;;;;;14.27;95.53;102244.34;5040136;28;20025;-65
2023/09/14 07:13:46;;;;;;;17.58;7.43;;;;;;;14.41;95.75;102245.56;5040182;28;20029;-65
2023/09/14 07:16:12;;;;;;;15.68;7.30;;;;;;;14.43;95.69;102249.78;5047115;28;20032;-66
2023/09/14 07:18:37;;;;;;;15.07;7.25;;;;;;;14.55;95.51;102251.19;5035457;28;20460;-65
2023/09/14 07:21:02;;;;;;;15.23;7.70;;;;;;;14.68;95.64;102244.53;5046865;28;20032;-66
2023/09/14 07:23:30;;;;;;;16.70;7.93;;;;;;;14.80;95.56;102245.91;5039555;28;20017;-65
2023/09/14 07:25:55;;;;;;;15.02;7.53;;;;;;;14.88;95.68;102251.25;5039505;28;20044;-65
2023/09/14 07:28:21;;;;;;;16.95;8.13;;;;;;;15.00;95.43;102257.13;5043239;28;20474;-65
2023/09/14 07:30:48;;;;;;;18.08;7.63;;;;;;;15.02;94.99;102247.09;5045926;28;20021;-65
2023/09/14 07:33:14;;;;;;;15.18;7.57;;;;;;;15.09;94.40;102250.81;5045629;28;20017;-65
2023/09/14 07:35:42;;;;;;;14.07;6.63;;;;;;;15.13;93.92;102252.16;5051890;28;20024;-65
2023/09/14 07:38:08;;;;;;;14.00;6.68;;;;;;;15.15;93.25;102253.66;5048362;28;20021;-65
2023/09/14 07:40:34;;;;;;;12.35;7.07;;;;;;;15.23;93.22;102254.66;5046973;28;20021;-65
2023/09/14 07:42:59;;;;;;;20.25;7.35;;;;;;;15.32;93.24;102253.63;5037752;28;20140;-65
2023/09/14 07:45:24;;;;;;;17.67;7.45;;;;;;;15.33;92.93;102253.50;5044387;28;20028;-65
2023/09/14 07:47:49;;;;;;;15.27;6.93;;;;;;;15.47;92.69;102257.34;5048401;28;20013;-65
2023/09/14 07:50:15;;;;;;;15.77;7.50;;;;;;;15.56;92.98;102258.16;5045752;28;20021;-65
2023/09/14 07:52:41;;;;;;;14.00;7.05;;;;;;;15.61;92.66;102266.56;5048286;28;20020;-65
2023/09/14 07:55:07;;;;;;;15.27;7.90;;;;;;;15.59;91.83;102263.22;5048625;28;20083;-65
2023/09/14 07:57:32;;;;;;;21.17;7.65;;;;;;;15.58;91.04;102272.22;5044629;28;20017;-65
2023/09/14 07:59:57;;;;;;;18.20;7.40;;;;;;;15.61;90.75;102269.22;5041499;28;20126;-64
2023/09/14 08:02:23;;;;;;;18.00;8.05;;;;;;;15.65;90.49;102267.91;5049994;28;20029;-65
2023/09/14 08:04:49;;;;;;;16.25;7.45;;;;;;;15.69;90.20;102275.44;5043781;28;20021;-65
2023/09/14 08:07:15;;;;;;;15.85;8.05;;;;;;;15.75;90.04;102261.34;5046364;28;20394;-65
2023/09/14 08:09:40;;;;;;;16.80;7.93;;;;;;;15.87;90.05;102266.34;5043675;28;20025;-64
2023/09/14 08:12:06;;;;;;;17.45;8.60;;;;;;;15.94;89.87;102273.56;5042821;28;20608;-64
2023/09/14 08:14:31;;;;;;;22.30;8.50;;;;;;;15.97;89.53;102277.75;5042886;28;20036;-65
2023/09/14 08:16:56;;;;;;;13.65;8.05;;;;;;;15.99;89.01;102275.72;5044099;28;20385;-65
2023/09/14 08:19:21;;;;;;;18.48;7.97;;;;;;;16.07;88.82;102276.53;5049859;28;20033;-65
2023/09/14 08:21:47;;;;;;;18.27;9.20;;;;;;;16.07;88.54;102268.50;5047594;28;20090;-65
2023/09/14 08:24:12;;;;;;;13.98;8.25;;;;;;;16.13;88.31;102264.28;5044512;28;20055;-65
2023/09/14 08:26:37;;;;;;;15.68;8.73;;;;;;;16.19;88.20;102268.97;5042860;28;20029;-65
2023/09/14 08:29:03;;;;;;;16.38;8.45;;;;;;;16.27;88.13;102266.25;5044311;28;20029;-65
2023/09/14 08:31:28;;;;;;;17.70;8.60;;;;;;;16.34;88.12;102271.75;5040649;28;20025;-64
2023/09/14 08:33:53;;;;;;;16.63;9.20;;;;;;;16.43;88.33;102268.84;5048089;28;20047;-65
2023/09/14 08:36:18;;;;;;;15.65;8.85;;;;;;;16.52;88.24;102266.16;5047966;28;20083;-65
2023/09/14 08:38:44;;;;;;;21.58;9.48;;;;;;;16.59;87.92;102273.31;5049629;28;20024;-65
2023/09/14 08:41:19;;;;;;;18.42;9.35;;;;;;;16.67;88.08;102269.78;5048745;28;20044;-65
2023/09/14 08:43:45;;;;;;;20.20;9.68;;;;;;;16.76;88.14;102278.63;5033314;28;20030;-65
2023/09/14 08:46:11;;;;;;;18.67;9.43;;;;;;;16.82;87.67;102276.09;5039460;28;20079;-65
2023/09/14 08:48:42;;;;;;;24.30;9.38;;;;;;;16.84;87.69;102281.28;5045120;28;20055;-65
2023/09/14 08:51:10;;;;;;;17.77;9.82;;;;;;;16.90;87.00;102281.41;5037837;28;20049;-65
2023/09/14 08:53:36;;;;;;;17.95;9.90;;;;;;;16.96;86.52;102275.31;5041331;28;20053;-65
2023/09/14 08:56:03;;;;;;;18.55;10.00;;;;;;;17.04;86.00;102277.94;5044767;28;20029;-65
2023/09/14 08:58:29;;;;;;;17.33;9.57;;;;;;;17.06;85.36;102274.25;5039845;28;20025;-65
2023/09/14 09:00:55;;;;;;;18.00;9.52;;;;;;;17.13;85.13;102276.06;5040269;28;20024;-66
2023/09/14 09:03:20;;;;;;;19.77;10.55;;;;;;;17.17;85.05;102274.69;5042880;28;20540;-65
2023/09/14 09:05:47;;;;;;;19.35;10.98;;;;;;;17.17;84.48;102269.31;5040992;28;20123;-65
2023/09/14 09:08:15;;;;;;;22.38;12.18;;;;;;;17.25;83.97;102263.03;5036436;28;20075;-65
2023/09/14 09:10:41;;;;;;;18.45;10.93;;;;;;;17.38;84.03;102268.66;5044841;28;20070;-66
2023/09/14 09:13:06;;;;;;;18.35;11.00;;;;;;;17.54;83.95;102267.66;5046358;28;20021;-66
2023/09/14 09:15:34;;;;;;;21.15;11.82;;;;;;;17.63;83.29;102271.94;5041563;28;20028;-65
2023/09/14 09:18:11;;;;;;;21.77;10.90;;;;;;;17.77;82.47;102262.28;5037091;28;20056;-66
2023/09/14 09:20:45;;;;;;;23.63;11.50;;;;;;;17.81;82.00;102261.75;5034349;28;20021;-66
2023/09/14 09:23:14;;;;;;;20.40;11.65;;;;;;;17.81;81.25;102264.41;5039184;28;20025;-66
2023/09/14 09:25:43;;;;;;;19.42;11.20;;;;;;;17.87;80.61;102260.16;5036939;28;20064;-65
2023/09/14 09:28:08;;;;;;;19.60;11.63;;;;;;;17.97;80.31;102260.75;5035898;28;20468;-65
2023/09/14 09:30:35;;;;;;;23.30;12.45;;;;;;;18.13;80.41;102257.84;5044792;28;20448;-66
2023/09/14 09:33:01;;;;;;;20.23;11.70;;;;;;;18.25;79.75;102261.75;5035783;28;20025;-66
2023/09/14 09:35:31;;;;;;;16.85;10.05;;;;;;;18.39;78.89;102265.44;5042566;28;20099;-65
2023/09/14 09:38:00;;;;;;;19.20;11.05;;;;;;;18.49;78.05;102262.47;5045489;28;20033;-66
2023/09/14 09:40:31;;;;;;;21.13;10.85;;;;;;;18.62;77.81;102259.97;5043305;28;20081;-65
2023/09/14 09:43:02;;;;;;;23.92;12.35;;;;;;;18.58;76.72;102261.34;5043309;28;20385;-65
2023/09/14 09:45:28;;;;;;;20.73;10.65;;;;;;;18.83;76.68;102254.63;5037634;28;20025;-65
2023/09/14 09:47:53;;;;;;;17.00;10.48;;;;;;;18.87;76.55;102253.22;5037446;28;20033;-65
2023/09/14 09:50:21;;;;;;;17.15;10.45;;;;;;;19.07;75.96;102263.34;5044196;28;20075;-64
2023/09/14 09:52:48;;;;;;;10.30;5.70;;;;;;;19.01;73.91;102256.88;5046130;28;20056;-65
2023/09/14 09:55:19;;;;;;;27.88;8.88;;;;;;;19.20;72.79;102258.09;5045784;28;20020;-65
2023/09/14 09:57:57;;;;;;;14.60;9.15;;;;;;;19.36;72.97;102255.13;5045681;28;20036;-66
2023/09/14 10:00:28;;;;;;;14.07;7.75;;;;;;;19.53;71.90;102250.34;5043112;28;20021;-65
2023/09/14 10:02:54;;;;;;;17.15;8.57;;;;;;;19.59;71.93;102254.13;5046391;28;20639;-65
2023/09/14 10:05:48;;;;;;;14.45;8.80;;;;;;;19.69;70.47;102251.94;5048856;28;20029;-66
2023/09/14 10:08:20;;;;;;;14.25;7.93;;;;;;;19.73;69.91;102253.19;5038503;28;20090;-65
2023/09/14 10:10:51;;;;;;;14.73;7.65;;;;;;;19.76;68.53;102253.63;5039493;28;20111;-64
2023/09/14 10:13:23;;;;;;;11.63;7.18;;;;;;;20.03;69.26;102251.94;5043719;28;20017;-65
2023/09/14 10:15:54;;;;;;;11.20;7.15;;;;;;;20.13;68.57;102256.13;5048601;28;20017;-65
2023/09/14 10:18:20;;;;;;;14.65;7.28;;;;;;;20.28;68.10;102248.75;5045817;28;20017;-65
2023/09/14 10:20:47;;;;;;;14.75;7.22;;;;;;;20.40;67.64;102244.47;5040982;28;20021;-66
2023/09/14 10:23:16;;;;;;;16.05;6.85;;;;;;;20.40;67.39;102249.88;5036468;28;20059;-65
2023/09/14 10:25:45;;;;;;;12.73;7.97;;;;;;;20.39;66.35;102243.59;5046388;28;20543;-66
2023/09/14 10:28:12;;;;;;;13.02;7.53;;;;;;;20.34;65.94;102246.09;5034009;28;20024;-65
2023/09/14 10:30:39;;;;;;;11.45;7.47;;;;;;;20.46;66.36;102238.25;5045792;28;20021;-66
2023/09/14 10:33:07;;;;;;;12.68;6.60;;;;;;;20.63;65.68;102242.28;5041558;28;20112;-65
2023/09/14 10:35:33;;;;;;;9.85;5.45;;;;;;;20.81;65.22;102243.56;5044655;28;20025;-65
2023/09/14 10:37:59;;;;;;;10.98;5.72;;;;;;;20.83;63.82;102244.22;5037147;28;20064;-66
2023/09/14 10:40:27;;;;;;;10.10;5.25;;;;;;;20.75;63.78;102238.97;5046516;28;20056;-65
2023/09/14 10:42:52;;;;;;;10.45;4.85;;;;;;;20.81;61.32;102228.19;5044208;28;20025;-66
2023/09/14 10:45:19;;;;;;;9.93;4.50;;;;;;;20.89;60.70;102232.59;5046759;28;20498;-67
2023/09/14 10:47:50;;;;;;;12.07;5.40;;;;;;;21.09;62.29;102230.72;5036458;28;20081;-66
2023/09/14 10:50:18;;;;;;;10.88;5.80;;;;;;;21.29;62.18;102222.69;5041108;28;20032;-67
2023/09/14 10:52:44;;;;;;;10.82;5.45;;;;;;;21.29;60.42;102228.91;5043803;28;20022;-67
2023/09/14 10:55:10;;;;;;;11.00;5.68;;;;;;;21.47;59.80;102219.34;5042184;28;20033;-66
2023/09/14 10:57:39;;;;;;;8.30;4.68;;;;;;;21.35;59.57;102213.72;5039969;28;20037;-67
2023/09/14 11:00:05;;;;;;;7.28;3.60;;;;;;;21.22;57.15;102219.94;5040355;28;20025;-66
2023/09/14 11:02:39;;;;;;;7.85;3.63;;;;;;;20.84;56.38;102221.56;5039281;28;20033;-67
2023/09/14 11:05:21;;;;;;;6.78;3.72;;;;;;;20.55;56.15;102223.56;5032688;28;20132;-66
2023/09/14 11:07:55;;;;;;;7.70;3.47;;;;;;;20.27;56.27;102222.81;5039035;28;20151;-66
2023/09/14 11:10:22;;;;;;;6.50;3.55;;;;;;;20.19;56.64;102212.16;5045046;28;20021;-67
2023/09/14 11:12:48;;;;;;;7.35;3.58;;;;;;;20.25;56.71;102206.00;5043621;28;20021;-66
2023/09/14 11:15:23;;;;;;;6.97;3.78;;;;;;;20.34;56.46;102218.28;5043996;28;20040;-66
2023/09/14 11:17:52;;;;;;;6.32;3.80;;;;;;;20.26;57.14;102213.06;5043989;28;20021;-65
2023/09/14 11:20:37;;;;;;;7.63;3.78;;;;;;;20.33;57.98;102219.31;5051859;28;20025;-67